Weather at Silver Creek Meadow Airport

Public forecast

Using degrees Fahrenheit for public forecast. Weather courtesy of forecast.io.

Closest aviation weather report (METAR) to Silver Creek Meadow Airport

Closest report is Princeton Municipal Airport, 2.5 nm (4.7 km) W.

2024/07/25 08:55 (retrieved 15 minutes ago)

KPNM 250855Z AUTO 00000KT 3SM BR CLR 13/12 A3023 RMK AO2

Closest aviation forecast (TAF) to Silver Creek Meadow Airport

Closest forecast is Saint Cloud Regional Airport, 21.5 nm (39.9 km) W.

2024/07/25 06:22 (retrieved 3 hours ago)

TAF KSTC 250520Z 2506/2606 11003KT P6SM FEW200 FM251400 15008KT P6SM SKC FM260000 14005KT P6SM SKC